»·PEaware :: ACA752 KSFO-CYYZ

ACA752 :: KSFO-CYYZ

FLIGHT INFORMATION

Flight Status: Arrived
Operator:
Air Canada
More flights by this operator :: More flights under this callsign
Pilot: Vlad D. (11271)
Aircraft: BOEING 737-300
(B733)
More flights by this aircraft type
Origin: KSFO San Francisco Intl
United States
Destination: CYYZ Toronto/Pearson Intl
Canada
More flights between these airports :: More routes between these airports
Route: TRUKN2 TIPRE Q126 INSLO DTA KD57Q KD57U GLD ENL FWA CRL QWERI NUBER1
File this flight plan on PilotEdge
Remarks: Flown with Virtual United
Altitude:
(Current/Filed)
35,000ft
Speed:
(Current/Filed)
450kts
Departed: 15-Jun-16 12:34 PM
Arrived: 15-Jun-16 05:12 PM
Distance/Time
Traveled:
1958nm/4:38
Distance/Time
To Go:
Arrived

Flight Plot

Page will automatically refresh every two minutes.


Map Options




Map Legend


Flown Route
Filed Route
Departure Airport
Arrival Airport
Navaid (VOR, NDB)
Fix

Horizontal Profiles

Position Reports

Time Latitude Longitude Heading Altitude Ground
Speed
15-Jun-16 11:57 37.618047 -122.384081 281 30ft 0kts
15-Jun-16 11:58 37.618047 -122.384081 281 30ft 0kts
15-Jun-16 11:59 37.618047 -122.384081 281 30ft 0kts
15-Jun-16 12:00 37.618047 -122.384081 281 30ft 0kts
15-Jun-16 12:01 37.618047 -122.384081 281 30ft 0kts
15-Jun-16 12:02 37.618047 -122.384081 281 30ft 0kts
15-Jun-16 12:03 37.618047 -122.384081 281 30ft 0kts
15-Jun-16 12:04 37.618047 -122.384081 281 30ft 0kts
15-Jun-16 12:05 37.618047 -122.384081 281 30ft 0kts
15-Jun-16 12:06 37.618047 -122.384081 281 30ft 0kts
15-Jun-16 12:07 37.618047 -122.384081 281 30ft 0kts
15-Jun-16 12:08 37.618047 -122.384081 281 30ft 0kts
15-Jun-16 12:09 37.618047 -122.384081 281 30ft 0kts
15-Jun-16 12:10 37.618047 -122.384081 281 30ft 0kts
15-Jun-16 12:11 37.618047 -122.384081 281 30ft 0kts
15-Jun-16 12:12 37.618047 -122.384081 281 30ft 0kts
15-Jun-16 12:13 37.618047 -122.384081 281 30ft 0kts
15-Jun-16 12:14 37.618047 -122.384081 281 30ft 0kts
15-Jun-16 12:15 37.618044 -122.383911 223 30ft 0kts
15-Jun-16 12:16 37.617953 -122.383664 68 30ft 0kts
15-Jun-16 12:17 37.618191 -122.383465 29 30ft 0kts
15-Jun-16 12:18 37.618191 -122.383465 29 30ft 0kts
15-Jun-16 12:19 37.618191 -122.383465 29 30ft 0kts
15-Jun-16 12:20 37.618211 -122.383450 32 30ft 0kts
15-Jun-16 12:21 37.618719 -122.383086 29 30ft 4kts
15-Jun-16 12:22 37.619573 -122.382377 54 30ft 3kts
15-Jun-16 12:23 37.618965 -122.380460 128 30ft 9kts
15-Jun-16 12:24 37.616547 -122.379690 203 29ft 9kts
15-Jun-16 12:25 37.614560 -122.380995 207 29ft 8kts
15-Jun-16 12:26 37.612786 -122.382186 208 30ft 6kts
15-Jun-16 12:27 37.611317 -122.383161 207 30ft 6kts
15-Jun-16 12:28 37.609392 -122.384685 206 30ft 9kts
15-Jun-16 12:29 37.608470 -122.383919 120 30ft 0kts
15-Jun-16 12:30 37.608446 -122.383866 119 30ft 2kts
15-Jun-16 12:31 37.612720 -122.379756 25 26ft 97kts
15-Jun-16 12:32 37.651230 -122.350627 37 2029ft 182kts
15-Jun-16 12:33 37.682135 -122.283290 56 3028ft 283kts
15-Jun-16 12:34 37.725279 -122.199460 56 5466ft 291kts
15-Jun-16 12:35 37.769430 -122.111779 54 8452ft 308kts
15-Jun-16 12:36 37.817226 -122.019005 54 11097ft 337kts
15-Jun-16 12:37 37.863787 -121.905926 61 13216ft 384kts
15-Jun-16 12:38 37.912648 -121.782097 62 15845ft 408kts
15-Jun-16 12:39 37.964325 -121.651038 62 18276ft 431kts
15-Jun-16 12:40 38.018306 -121.513600 62 19037ft 441kts
15-Jun-16 12:41 38.072425 -121.375173 62 19047ft 440kts
15-Jun-16 12:42 38.124002 -121.244022 63 20514ft 453kts
15-Jun-16 12:43 38.180360 -121.098718 63 22498ft 473kts
15-Jun-16 12:44 38.220362 -120.939627 84 24245ft 489kts
15-Jun-16 12:45 38.243295 -120.767407 81 25916ft 507kts
15-Jun-16 12:46 38.268095 -120.590647 81 27660ft 518kts
15-Jun-16 12:47 38.293408 -120.407972 81 29161ft 533kts
15-Jun-16 12:48 38.318902 -120.225500 83 31042ft 531kts
15-Jun-16 12:49 38.343783 -120.041672 84 32560ft 532kts
15-Jun-16 12:50 38.368503 -119.856647 84 33886ft 534kts
15-Jun-16 12:51 38.392912 -119.671671 81 34971ft 535kts
15-Jun-16 12:52 38.417131 -119.485777 81 34908ft 533kts
15-Jun-16 12:53 38.441042 -119.301238 82 34901ft 534kts
15-Jun-16 12:54 38.464822 -119.116836 82 34943ft 528kts
15-Jun-16 12:55 38.487911 -118.932463 82 34955ft 527kts
15-Jun-16 12:56 38.510858 -118.746921 82 34912ft 531kts
15-Jun-16 12:57 38.533370 -118.562478 82 34884ft 518kts
15-Jun-16 12:58 38.555174 -118.381326 82 34866ft 518kts
15-Jun-16 12:59 38.577145 -118.200872 83 34854ft 517kts
15-Jun-16 13:00 38.598421 -118.019207 83 34858ft 518kts
15-Jun-16 13:01 38.619529 -117.836524 83 34910ft 523kts
15-Jun-16 13:02 38.640546 -117.652072 83 34916ft 523kts
15-Jun-16 13:03 38.661183 -117.468277 83 34918ft 523kts
15-Jun-16 13:04 38.681873 -117.284939 83 34913ft 522kts
15-Jun-16 13:05 38.705093 -117.101456 80 34917ft 524kts
15-Jun-16 13:06 38.732877 -116.916089 82 34921ft 540kts
15-Jun-16 13:07 38.756272 -116.757546 82 34915ft 544kts
15-Jun-16 13:08 38.783933 -116.568015 82 34921ft 539kts
15-Jun-16 13:09 38.815065 -116.352013 82 34914ft 519kts
15-Jun-16 13:10 38.836979 -116.201774 82 34921ft 523kts
15-Jun-16 13:11 38.862798 -116.018513 82 34929ft 522kts
15-Jun-16 13:12 38.888385 -115.834731 82 34946ft 522kts
15-Jun-16 13:13 38.913616 -115.651329 82 34945ft 522kts
15-Jun-16 13:14 38.938588 -115.467586 82 34945ft 522kts
15-Jun-16 13:15 38.963377 -115.285020 83 34941ft 522kts
15-Jun-16 13:16 38.987937 -115.101703 83 34946ft 522kts
15-Jun-16 13:17 39.012024 -114.917698 83 34945ft 522kts
15-Jun-16 13:18 39.035862 -114.733299 83 34945ft 522kts
15-Jun-16 13:19 39.059329 -114.549416 83 34945ft 522kts
15-Jun-16 13:20 39.082487 -114.365566 83 34944ft 522kts
15-Jun-16 13:21 39.105437 -114.185351 84 34941ft 521kts
15-Jun-16 13:22 39.128070 -114.000741 84 34945ft 522kts
15-Jun-16 13:23 39.150472 -113.815626 84 34946ft 523kts
15-Jun-16 13:24 39.172541 -113.630751 84 34945ft 524kts
15-Jun-16 13:25 39.194411 -113.444955 84 34941ft 524kts
15-Jun-16 13:26 39.216164 -113.260998 84 34910ft 523kts
15-Jun-16 13:27 39.237213 -113.078364 84 34906ft 507kts
15-Jun-16 13:28 39.257393 -112.899265 84 34912ft 506kts
15-Jun-16 13:29 39.277386 -112.719527 84 34907ft 506kts
15-Jun-16 13:30 39.297182 -112.538897 84 34909ft 509kts
15-Jun-16 13:31 39.312292 -112.357622 86 34909ft 510kts
15-Jun-16 13:32 39.328632 -112.177176 87 34909ft 511kts
15-Jun-16 13:33 39.344357 -111.994634 87 34908ft 513kts
15-Jun-16 13:34 39.359854 -111.811500 87 34911ft 514kts
15-Jun-16 13:35 39.374917 -111.630351 87 34972ft 496kts
15-Jun-16 13:36 39.389225 -111.454257 87 35018ft 502kts
15-Jun-16 13:37 39.404072 -111.272823 87 35028ft 517kts
15-Jun-16 13:38 39.418686 -111.088842 88 35028ft 514kts
15-Jun-16 13:39 39.432809 -110.904587 88 35027ft 515kts
15-Jun-16 13:40 39.446575 -110.721377 87 35025ft 509kts
15-Jun-16 13:41 39.459895 -110.540103 87 35028ft 502kts
15-Jun-16 13:42 39.472697 -110.362182 86 35024ft 492kts
15-Jun-16 13:43 39.485530 -110.187432 87 35028ft 494kts
15-Jun-16 13:44 39.497704 -110.010595 87 35001ft 494kts
15-Jun-16 13:45 39.501250 -109.832709 91 34972ft 493kts
15-Jun-16 13:46 39.503866 -109.655555 91 34972ft 493kts
15-Jun-16 13:47 39.506250 -109.478036 91 34972ft 493kts
15-Jun-16 13:48 39.508531 -109.302045 91 34988ft 493kts
15-Jun-16 13:49 39.510728 -109.124755 92 35019ft 493kts
15-Jun-16 13:50 39.512292 -108.947682 92 35018ft 492kts
15-Jun-16 13:51 39.513593 -108.770914 92 35010ft 493kts
15-Jun-16 13:52 39.514633 -108.593271 92 35009ft 493kts
15-Jun-16 13:53 39.515399 -108.415736 92 35009ft 493kts
15-Jun-16 13:54 39.516359 -108.240361 92 35009ft 493kts
15-Jun-16 13:55 39.516655 -108.063079 93 35030ft 493kts
15-Jun-16 13:56 39.516613 -107.885731 93 35046ft 492kts
15-Jun-16 13:57 39.516308 -107.708951 93 35046ft 492kts
15-Jun-16 13:58 39.515731 -107.532010 93 35046ft 492kts
15-Jun-16 13:59 39.514886 -107.354818 93 35087ft 492kts
15-Jun-16 14:00 39.514326 -107.179645 93 35122ft 493kts
15-Jun-16 14:01 39.512940 -107.002359 93 35123ft 492kts
15-Jun-16 14:02 39.511315 -106.827098 92 35121ft 483kts
15-Jun-16 14:03 39.509445 -106.654190 92 35130ft 481kts
15-Jun-16 14:04 39.507322 -106.481077 92 35169ft 481kts
15-Jun-16 14:05 39.505103 -106.308758 92 35316ft 482kts
15-Jun-16 14:06 39.502863 -106.136200 92 35337ft 481kts
15-Jun-16 14:07 39.499794 -105.963442 93 35338ft 481kts
15-Jun-16 14:08 39.497268 -105.790696 92 35325ft 482kts
15-Jun-16 14:09 39.495849 -105.646009 92 35177ft 481kts
15-Jun-16 14:10 39.493535 -105.444107 92 35079ft 481kts
15-Jun-16 14:11 39.491881 -105.300705 92 35054ft 481kts
15-Jun-16 14:12 39.489748 -105.127846 92 35063ft 481kts
15-Jun-16 14:13 39.487013 -104.954838 92 35064ft 481kts
15-Jun-16 14:14 39.484030 -104.781918 92 35062ft 481kts
15-Jun-16 14:15 39.480809 -104.609943 92 35057ft 481kts
15-Jun-16 14:16 39.477296 -104.436143 92 35055ft 480kts
15-Jun-16 14:17 39.473961 -104.264308 93 35055ft 479kts
15-Jun-16 14:18 39.470098 -104.091597 93 35058ft 480kts
15-Jun-16 14:19 39.465833 -103.918798 93 35063ft 480kts
15-Jun-16 14:20 39.461324 -103.746227 93 35064ft 480kts
15-Jun-16 14:21 39.456549 -103.573358 93 35064ft 480kts
15-Jun-16 14:22 39.451534 -103.401046 93 35065ft 479kts
15-Jun-16 14:23 39.446837 -103.231411 93 35063ft 468kts
15-Jun-16 14:24 39.441522 -103.064110 93 35043ft 467kts
15-Jun-16 14:25 39.435891 -102.895875 93 35006ft 468kts
15-Jun-16 14:26 39.430017 -102.727560 93 35002ft 469kts
15-Jun-16 14:27 39.423895 -102.559171 93 35000ft 469kts
15-Jun-16 14:28 39.417504 -102.390146 93 35000ft 469kts
15-Jun-16 14:29 39.411427 -102.222545 93 35000ft 469kts
15-Jun-16 14:30 39.404605 -102.054199 93 34977ft 467kts
15-Jun-16 14:31 39.397551 -101.886871 93 34968ft 465kts
15-Jun-16 14:32 39.390261 -101.719596 93 34972ft 466kts
15-Jun-16 14:33 39.379131 -101.553221 92 34973ft 466kts
15-Jun-16 14:34 39.374753 -101.385712 92 34965ft 467kts
15-Jun-16 14:35 39.370876 -101.218612 92 34954ft 469kts
15-Jun-16 14:36 39.366227 -101.050057 92 34954ft 468kts
15-Jun-16 14:37 39.361326 -100.882022 92 34954ft 468kts
15-Jun-16 14:38 39.356177 -100.713777 92 34954ft 468kts
15-Jun-16 14:39 39.350784 -100.545516 92 34954ft 468kts
15-Jun-16 14:40 39.345147 -100.377267 92 34926ft 468kts
15-Jun-16 14:41 39.339816 -100.209865 93 34908ft 468kts
15-Jun-16 14:42 39.333729 -100.042139 93 34908ft 467kts
15-Jun-16 14:43 39.327387 -99.874498 93 34908ft 467kts
15-Jun-16 14:44 39.320827 -99.707382 93 34908ft 467kts
15-Jun-16 14:45 39.314002 -99.539720 92 34907ft 467kts
15-Jun-16 14:46 39.306939 -99.372134 92 34901ft 467kts
15-Jun-16 14:47 39.300201 -99.205549 92 34890ft 467kts
15-Jun-16 14:48 39.292667 -99.038003 93 34880ft 467kts
15-Jun-16 14:49 39.284919 -98.871217 93 34881ft 466kts
15-Jun-16 14:50 39.276914 -98.704080 93 34881ft 466kts
15-Jun-16 14:51 39.268658 -98.536751 93 34855ft 467kts
15-Jun-16 14:52 39.260190 -98.370005 93 34854ft 467kts
15-Jun-16 14:53 39.252026 -98.203640 93 34878ft 467kts
15-Jun-16 14:54 39.243050 -98.036196 93 34890ft 467kts
15-Jun-16 14:55 39.233852 -97.869279 93 34890ft 467kts
15-Jun-16 14:56 39.224438 -97.702799 93 34890ft 467kts
15-Jun-16 14:57 39.214759 -97.535847 93 34890ft 467kts
15-Jun-16 14:58 39.204860 -97.369294 93 34889ft 466kts
15-Jun-16 14:59 39.195319 -97.203919 94 34882ft 465kts
15-Jun-16 15:00 39.184951 -97.037370 94 34881ft 465kts
15-Jun-16 15:01 39.174382 -96.871554 94 34884ft 465kts
15-Jun-16 15:02 39.163561 -96.705518 94 34894ft 466kts
15-Jun-16 15:03 39.152470 -96.539046 94 34897ft 466kts
15-Jun-16 15:04 39.141186 -96.373246 94 34899ft 466kts
15-Jun-16 15:05 39.130222 -96.207981 94 34897ft 466kts
15-Jun-16 15:06 39.118291 -96.039606 93 34916ft 477kts
15-Jun-16 15:07 39.105943 -95.869146 93 34921ft 478kts
15-Jun-16 15:08 39.093407 -95.699488 93 34924ft 478kts
15-Jun-16 15:09 39.080550 -95.528918 93 34919ft 477kts
15-Jun-16 15:10 39.069683 -95.387296 93 34918ft 477kts
15-Jun-16 15:11 39.054833 -95.190561 94 34917ft 477kts
15-Jun-16 15:12 39.043538 -95.048846 94 34917ft 477kts
15-Jun-16 15:13 39.029770 -94.878975 94 34928ft 477kts
15-Jun-16 15:14 39.015781 -94.709461 94 34931ft 477kts
15-Jun-16 15:15 39.001547 -94.540016 94 34916ft 477kts
15-Jun-16 15:16 38.987068 -94.370622 94 34930ft 478kts
15-Jun-16 15:17 38.972911 -94.201747 94 34936ft 478kts
15-Jun-16 15:18 38.957930 -94.032334 94 34935ft 478kts
15-Jun-16 15:19 38.942720 -93.863201 94 34922ft 476kts
15-Jun-16 15:20 38.927317 -93.694684 94 34918ft 476kts
15-Jun-16 15:21 38.911657 -93.526073 95 34917ft 477kts
15-Jun-16 15:22 38.895703 -93.356970 95 34916ft 483kts
15-Jun-16 15:23 38.879896 -93.186508 96 34928ft 484kts
15-Jun-16 15:24 38.863197 -93.015026 96 34929ft 485kts
15-Jun-16 15:25 38.846225 -92.843374 96 34913ft 484kts
15-Jun-16 15:26 38.829071 -92.672445 96 34910ft 484kts
15-Jun-16 15:27 38.811713 -92.502055 96 34912ft 484kts
15-Jun-16 15:28 38.794080 -92.331218 96 34914ft 485kts
15-Jun-16 15:29 38.776702 -92.160709 96 34918ft 485kts
15-Jun-16 15:30 38.758498 -91.989710 96 34908ft 484kts
15-Jun-16 15:31 38.740060 -91.818815 96 34902ft 484kts
15-Jun-16 15:32 38.721398 -91.648262 96 34908ft 485kts
15-Jun-16 15:33 38.702513 -91.478008 96 34911ft 485kts
15-Jun-16 15:34 38.683748 -91.309818 97 34900ft 489kts
15-Jun-16 15:35 38.664413 -91.136709 99 34881ft 492kts
15-Jun-16 15:36 38.644472 -90.964091 99 34881ft 491kts
15-Jun-16 15:37 38.624220 -90.791020 99 34881ft 492kts
15-Jun-16 15:38 38.603817 -90.618904 99 34882ft 492kts
15-Jun-16 15:39 38.583100 -90.446378 99 34882ft 492kts
15-Jun-16 15:40 38.562659 -90.275480 99 34873ft 490kts
15-Jun-16 15:41 38.541669 -90.103512 100 34872ft 489kts
15-Jun-16 15:42 38.520307 -89.932201 100 34874ft 490kts
15-Jun-16 15:43 38.498626 -89.760424 100 34880ft 490kts
15-Jun-16 15:44 38.476672 -89.588570 100 34888ft 490kts
15-Jun-16 15:45 38.454532 -89.417306 100 34891ft 490kts
15-Jun-16 15:46 38.433056 -89.249689 102 34872ft 487kts
15-Jun-16 15:47 38.430409 -89.080313 61 34874ft 490kts
15-Jun-16 15:48 38.535225 -88.981383 35 34872ft 481kts
15-Jun-16 15:49 38.626684 -88.854855 46 34874ft 488kts
15-Jun-16 15:50 38.715168 -88.724129 45 34871ft 484kts
15-Jun-16 15:51 38.803328 -88.593610 46 34888ft 492kts
15-Jun-16 15:52 38.892544 -88.460921 46 34893ft 491kts
15-Jun-16 15:53 38.974706 -88.338286 47 34900ft 484kts
15-Jun-16 15:54 39.062587 -88.207577 47 34907ft 485kts
15-Jun-16 15:55 39.147706 -88.079439 47 34883ft 487kts
15-Jun-16 15:56 39.232994 -87.950535 47 34888ft 485kts
15-Jun-16 15:57 39.320241 -87.818130 47 34913ft 485kts
15-Jun-16 15:58 39.407855 -87.684610 47 34909ft 492kts
15-Jun-16 15:59 39.496328 -87.549182 47 34908ft 494kts
15-Jun-16 16:00 39.584764 -87.413231 47 34908ft 493kts
15-Jun-16 16:01 39.672606 -87.278459 47 34908ft 492kts
15-Jun-16 16:02 39.760614 -87.142226 48 34914ft 493kts
15-Jun-16 16:03 39.848431 -87.005453 48 34926ft 493kts
15-Jun-16 16:04 39.935945 -86.868560 48 34926ft 493kts
15-Jun-16 16:05 40.023624 -86.730802 48 34926ft 493kts
15-Jun-16 16:06 40.109038 -86.596012 48 34918ft 493kts
15-Jun-16 16:07 40.192900 -86.463702 48 34918ft 493kts
15-Jun-16 16:08 40.279838 -86.325457 48 34906ft 494kts
15-Jun-16 16:09 40.367408 -86.186333 48 34881ft 498kts
15-Jun-16 16:10 40.454854 -86.045775 48 34871ft 498kts
15-Jun-16 16:11 40.542201 -85.904774 49 34871ft 499kts
15-Jun-16 16:12 40.629660 -85.762938 50 34881ft 498kts
15-Jun-16 16:13 40.716085 -85.622128 50 34873ft 491kts
15-Jun-16 16:14 40.801058 -85.483061 50 34854ft 485kts
15-Jun-16 16:15 40.882791 -85.349901 51 34856ft 489kts
15-Jun-16 16:16 40.964209 -85.215874 51 34861ft 498kts
15-Jun-16 16:17 41.050043 -85.071882 49 34862ft 501kts
15-Jun-16 16:18 41.123226 -84.956149 49 34859ft 500kts
15-Jun-16 16:19 41.227115 -84.790998 49 34847ft 501kts
15-Jun-16 16:20 41.301447 -84.672269 49 34835ft 502kts
15-Jun-16 16:21 41.390025 -84.530174 49 34835ft 502kts
15-Jun-16 16:22 41.478280 -84.387933 49 34833ft 502kts
15-Jun-16 16:23 41.566381 -84.246392 50 34828ft 502kts
15-Jun-16 16:24 41.654265 -84.103448 50 34827ft 502kts
15-Jun-16 16:25 41.741418 -83.960982 50 34834ft 501kts
15-Jun-16 16:26 41.826689 -83.820934 49 34841ft 498kts
15-Jun-16 16:27 41.913168 -83.678233 49 34842ft 492kts
15-Jun-16 16:28 41.998092 -83.537444 49 34837ft 493kts
15-Jun-16 16:29 42.081506 -83.392472 53 34832ft 497kts
15-Jun-16 16:30 42.160797 -83.244286 53 34829ft 494kts
15-Jun-16 16:31 42.240535 -83.095139 53 34829ft 496kts
15-Jun-16 16:32 42.320373 -82.944939 53 34828ft 496kts
15-Jun-16 16:33 42.399908 -82.794564 53 34827ft 497kts
15-Jun-16 16:34 42.479283 -82.643737 53 34838ft 493kts
15-Jun-16 16:35 42.557992 -82.493425 53 34846ft 492kts
15-Jun-16 16:36 42.636116 -82.343481 54 34854ft 491kts
15-Jun-16 16:37 42.710100 -82.190404 61 34863ft 491kts
15-Jun-16 16:38 42.776802 -82.029578 59 34862ft 490kts
15-Jun-16 16:39 42.843752 -81.870833 59 34118ft 490kts
15-Jun-16 16:40 42.909801 -81.713281 59 31934ft 475kts
15-Jun-16 16:41 42.974593 -81.557886 59 29769ft 475kts
15-Jun-16 16:42 43.039102 -81.402335 58 27592ft 471kts
15-Jun-16 16:43 43.100975 -81.253740 58 25427ft 450kts
15-Jun-16 16:44 43.160630 -81.108529 58 23242ft 434kts
15-Jun-16 16:45 43.217899 -80.968300 58 20912ft 416kts
15-Jun-16 16:46 43.272572 -80.833792 58 18638ft 398kts
15-Jun-16 16:47 43.323847 -80.707079 58 16426ft 380kts
15-Jun-16 16:48 43.373646 -80.583468 59 14322ft 359kts
15-Jun-16 16:49 43.419735 -80.468594 59 12654ft 334kts
15-Jun-16 16:50 43.462418 -80.357858 66 11886ft 334kts
15-Jun-16 16:51 43.494283 -80.244811 67 10362ft 322kts
15-Jun-16 16:52 43.525388 -80.134529 67 10005ft 315kts
15-Jun-16 16:53 43.554945 -80.025827 69 9993ft 312kts
15-Jun-16 16:54 43.584805 -79.913635 69 10001ft 313kts
15-Jun-16 16:55 43.638744 -79.827893 34 9095ft 297kts
15-Jun-16 16:56 43.703442 -79.764522 34 7891ft 279kts
15-Jun-16 16:57 43.761810 -79.702580 45 6868ft 259kts
15-Jun-16 16:58 43.810248 -79.632513 46 5766ft 248kts
15-Jun-16 16:59 43.856139 -79.565493 47 4979ft 226kts
15-Jun-16 17:00 43.898713 -79.501546 48 4279ft 233kts
15-Jun-16 17:01 43.925460 -79.428714 121 3104ft 228kts
15-Jun-16 17:02 43.872499 -79.408568 170 2952ft 193kts
15-Jun-16 17:03 43.826264 -79.437707 226 3052ft 190kts
15-Jun-16 17:04 43.793247 -79.491681 225 2992ft 182kts
15-Jun-16 17:05 43.759649 -79.540624 224 2467ft 162kts
15-Jun-16 17:06 43.733036 -79.579068 224 1684ft 130kts
15-Jun-16 17:07 43.708835 -79.614113 224 1033ft 128kts
15-Jun-16 17:08 43.685054 -79.648180 226 549ft 93kts
15-Jun-16 17:09 43.675788 -79.661634 227 548ft 30kts
15-Jun-16 17:10 43.673622 -79.660728 48 548ft 15kts
15-Jun-16 17:11 43.677160 -79.655553 46 549ft 21kts
15-Jun-16 17:12 43.681570 -79.649172 47 548ft 24kts
15-Jun-16 17:13 43.686281 -79.642305 46 552ft 22kts
15-Jun-16 17:14 43.690179 -79.636650 67 555ft 13kts
15-Jun-16 17:15 43.687046 -79.631951 134 552ft 20kts
15-Jun-16 17:16 43.683034 -79.626710 136 549ft 18kts
15-Jun-16 17:17 43.681341 -79.623187 136 548ft 13kts
15-Jun-16 17:18 43.679603 -79.619305 127 548ft 9kts
15-Jun-16 17:19 43.679420 -79.617735 71 548ft 0kts
15-Jun-16 17:20 43.679420 -79.617735 71 548ft 0kts

Navigation Log

Ident Type
Flight plan parsing failed, navigation log unavailable